createdAt,value
2023-03-18T00:02:18.714Z,4.89
2023-03-18T00:05:07.650Z,4.86
2023-03-18T00:07:54.770Z,4.89
2023-03-18T00:10:41.425Z,4.89
2023-03-18T00:13:29.391Z,4.88
2023-03-18T00:16:17.189Z,4.85
2023-03-18T00:19:04.646Z,4.85
2023-03-18T00:21:51.861Z,4.85
2023-03-18T00:24:38.488Z,4.86
2023-03-18T00:27:25.325Z,4.83
2023-03-18T00:30:12.961Z,4.79
2023-03-18T00:33:00.323Z,4.79
2023-03-18T00:35:48.185Z,4.80
2023-03-18T00:38:35.697Z,4.79
2023-03-18T00:41:22.296Z,4.75
2023-03-18T00:44:09.448Z,4.76
2023-03-18T00:46:56.020Z,4.76
2023-03-18T00:49:42.837Z,4.74
2023-03-18T00:52:32.023Z,4.69
2023-03-18T00:55:18.737Z,4.66
2023-03-18T00:58:05.436Z,4.65
2023-03-18T01:00:52.744Z,4.65
2023-03-18T01:03:44.110Z,4.67
2023-03-18T01:06:34.091Z,4.67
2023-03-18T01:09:21.099Z,4.62
2023-03-18T01:12:09.766Z,4.60
2023-03-18T01:14:56.801Z,4.58
2023-03-18T01:17:44.396Z,4.56
2023-03-18T01:20:31.322Z,4.54
2023-03-18T01:23:18.517Z,4.52
2023-03-18T01:26:07.731Z,4.51
2023-03-18T01:28:54.260Z,4.53
2023-03-18T01:31:41.161Z,4.50
2023-03-18T01:34:28.950Z,4.47
2023-03-18T01:37:15.235Z,4.48
2023-03-18T01:40:01.962Z,4.45
2023-03-18T01:42:56.731Z,4.47
2023-03-18T01:45:50.054Z,4.49
2023-03-18T01:48:39.973Z,4.47
2023-03-18T01:51:27.452Z,4.44
2023-03-18T01:54:15.591Z,4.42
2023-03-18T01:57:03.815Z,4.39
2023-03-18T01:59:53.287Z,4.36
2023-03-18T02:02:42.523Z,4.35
2023-03-18T02:05:29.826Z,4.37
2023-03-18T02:08:17.447Z,4.35
2023-03-18T02:11:04.742Z,4.32
2023-03-18T02:13:52.790Z,4.32
2023-03-18T02:16:51.658Z,4.30
2023-03-18T02:20:18.770Z,4.29
2023-03-18T02:23:22.748Z,4.24
2023-03-18T02:26:20.976Z,4.27
2023-03-18T02:29:09.043Z,4.29
2023-03-18T02:31:58.684Z,4.25
2023-03-18T02:34:45.713Z,4.20
2023-03-18T02:37:34.287Z,4.14
2023-03-18T02:40:31.455Z,4.15
2023-03-18T02:43:23.665Z,4.17
2023-03-18T02:46:13.856Z,4.14
2023-03-18T02:49:02.659Z,4.10
2023-03-18T02:51:50.494Z,4.10
2023-03-18T02:54:37.498Z,4.08
2023-03-18T02:57:23.886Z,4.07
2023-03-18T03:00:13.603Z,4.09
2023-03-18T03:03:01.852Z,4.07
2023-03-18T03:05:48.790Z,4.07
2023-03-18T03:08:35.649Z,4.06
2023-03-18T03:11:23.955Z,4.05
2023-03-18T03:14:11.812Z,4.01
2023-03-18T03:16:58.939Z,4.02
2023-03-18T03:19:46.204Z,4.01
2023-03-18T03:22:34.379Z,4.01
2023-03-18T03:25:21.031Z,3.98
2023-03-18T03:28:08.777Z,3.99
2023-03-18T03:30:55.969Z,4.03
2023-03-18T03:33:44.085Z,4.06
2023-03-18T03:36:31.066Z,4.04
2023-03-18T03:39:17.651Z,3.99
2023-03-18T03:42:04.020Z,3.97
2023-03-18T03:44:51.062Z,3.97
2023-03-18T03:47:37.660Z,3.96
2023-03-18T03:50:24.283Z,3.96
2023-03-18T03:53:11.141Z,3.95
2023-03-18T03:55:59.247Z,3.94
2023-03-18T03:58:47.038Z,3.92
2023-03-18T04:01:34.848Z,3.94
2023-03-18T04:04:21.551Z,3.94
2023-03-18T04:07:08.347Z,3.95
2023-03-18T04:09:56.097Z,3.93
2023-03-18T04:12:45.967Z,3.92
2023-03-18T04:15:32.789Z,3.96
2023-03-18T04:18:19.870Z,3.99
2023-03-18T04:21:08.171Z,3.99
2023-03-18T04:23:55.318Z,3.96
2023-03-18T04:26:42.149Z,3.91
2023-03-18T04:29:29.194Z,3.89
2023-03-18T04:32:16.223Z,3.88
2023-03-18T04:35:03.485Z,3.88
2023-03-18T04:37:50.568Z,3.95
2023-03-18T04:40:37.015Z,3.91
2023-03-18T04:43:23.360Z,3.87
2023-03-18T04:46:11.132Z,3.90
2023-03-18T04:48:58.620Z,3.91
2023-03-18T04:51:45.794Z,3.92
2023-03-18T04:54:32.413Z,3.88
2023-03-18T04:57:19.621Z,3.89
2023-03-18T05:00:10.416Z,3.92
2023-03-18T05:02:58.259Z,3.96
2023-03-18T05:05:45.161Z,3.98
2023-03-18T05:08:31.973Z,3.96
2023-03-18T05:11:19.552Z,3.99
2023-03-18T05:14:06.337Z,4.01
2023-03-18T05:16:53.838Z,4.08
2023-03-18T05:19:41.069Z,4.13
2023-03-18T05:22:27.573Z,4.18
2023-03-18T05:25:13.932Z,4.21
2023-03-18T05:28:01.734Z,4.25
2023-03-18T05:30:48.546Z,4.30
2023-03-18T05:33:35.378Z,4.44
2023-03-18T05:36:22.366Z,4.75
2023-03-18T05:39:08.915Z,5.07
2023-03-18T05:41:54.964Z,5.29
2023-03-18T05:44:42.329Z,5.37
2023-03-18T05:47:28.763Z,5.43
2023-03-18T05:50:17.252Z,5.54
2023-03-18T05:53:05.608Z,5.61
2023-03-18T05:55:52.087Z,5.78
2023-03-18T05:58:38.988Z,6.04
2023-03-18T06:01:26.088Z,6.39
2023-03-18T06:04:13.354Z,6.51
2023-03-18T06:07:01.563Z,6.88
2023-03-18T06:09:48.920Z,7.14
2023-03-18T06:12:36.168Z,7.63
2023-03-18T06:15:24.584Z,8.12
2023-03-18T06:18:11.441Z,8.52
2023-03-18T06:20:58.585Z,8.52
2023-03-18T06:23:45.580Z,8.44
2023-03-18T06:26:32.919Z,8.58
2023-03-18T06:29:20.497Z,8.39
2023-03-18T06:32:08.370Z,8.50
2023-03-18T06:34:55.983Z,8.69
2023-03-18T06:37:43.475Z,8.78
2023-03-18T06:40:31.066Z,8.55
2023-03-18T06:43:18.940Z,8.67
2023-03-18T06:46:06.222Z,8.72
2023-03-18T06:48:54.771Z,8.71
2023-03-18T06:51:44.589Z,8.69
2023-03-18T06:54:31.468Z,8.59
2023-03-18T06:57:18.938Z,8.29
2023-03-18T07:00:06.892Z,8.21
2023-03-18T07:02:54.034Z,8.29
2023-03-18T07:05:42.346Z,8.41
2023-03-18T07:08:29.408Z,8.46
2023-03-18T07:11:17.007Z,8.69
2023-03-18T07:14:04.450Z,8.89
2023-03-18T07:16:52.243Z,8.91
2023-03-18T07:19:40.173Z,8.67
2023-03-18T07:22:36.547Z,8.63
2023-03-18T07:25:23.629Z,8.80
2023-03-18T07:28:11.880Z,9.04
2023-03-18T07:30:58.790Z,9.10
2023-03-18T07:33:45.071Z,8.96
2023-03-18T07:36:31.971Z,9.23
2023-03-18T07:39:18.536Z,9.50
2023-03-18T07:42:06.738Z,9.85
2023-03-18T07:44:53.085Z,10.29
2023-03-18T07:47:39.788Z,10.23
2023-03-18T07:50:26.489Z,9.91
2023-03-18T07:53:16.566Z,9.78
2023-03-18T07:56:03.486Z,9.85
2023-03-18T07:58:51.097Z,9.91
2023-03-18T08:01:37.628Z,10.20
2023-03-18T08:04:25.358Z,10.46
2023-03-18T08:07:18.707Z,10.70
2023-03-18T08:10:11.596Z,11.02
2023-03-18T08:13:00.627Z,10.94
2023-03-18T08:16:19.652Z,10.63
2023-03-18T08:29:46.929Z,11.02
2023-03-18T08:32:44.800Z,10.93
2023-03-18T08:36:52.393Z,10.99
2023-03-18T08:51:35.196Z,11.96
2023-03-18T08:54:38.716Z,12.14
2023-03-18T09:08:59.489Z,12.04
2023-03-18T09:12:15.715Z,12.41
2023-03-18T09:15:35.187Z,12.44
2023-03-18T09:20:02.964Z,12.41
2023-03-18T09:23:18.385Z,12.55
2023-03-18T09:26:48.601Z,12.97
2023-03-18T09:30:51.175Z,13.09
2023-03-18T09:34:25.785Z,13.44
2023-03-18T09:38:30.322Z,13.39
2023-03-18T09:42:31.536Z,12.84
2023-03-18T09:46:04.260Z,12.71
2023-03-18T09:49:40.875Z,12.74
2023-03-18T09:53:26.997Z,12.96
2023-03-18T09:56:36.272Z,12.75
2023-03-18T10:00:30.102Z,12.97
2023-03-18T10:03:56.529Z,13.21
2023-03-18T10:06:45.795Z,13.68
2023-03-18T10:14:08.899Z,13.79
2023-03-18T10:17:44.833Z,13.91
2023-03-18T10:22:25.621Z,13.83
2023-03-18T10:25:35.685Z,14.33
2023-03-18T10:30:05.583Z,14.37
2023-03-18T10:43:38.255Z,14.01
2023-03-18T10:46:38.767Z,14.26
2023-03-18T10:50:43.819Z,14.38
2023-03-18T10:53:39.700Z,14.42
2023-03-18T10:56:32.746Z,14.37
2023-03-18T11:00:20.652Z,14.43
2023-03-18T11:02:44.994Z,14.88
2023-03-18T11:16:32.141Z,15.46
2023-03-18T11:19:51.713Z,15.69
2023-03-18T11:23:36.189Z,15.57
2023-03-18T11:28:19.672Z,15.01
2023-03-18T11:31:21.305Z,14.92
2023-03-18T11:46:12.137Z,15.40
2023-03-18T12:00:56.082Z,15.81
2023-03-18T12:42:30.268Z,16.07
2023-03-18T12:56:32.079Z,15.81
2023-03-18T13:10:48.382Z,16.19
2023-03-18T13:25:41.455Z,15.93
2023-03-18T13:40:54.798Z,16.94
2023-03-18T13:44:43.662Z,17.79
2023-03-18T13:59:09.271Z,17.98
2023-03-18T14:16:13.832Z,15.89
2023-03-18T14:33:36.362Z,15.17
2023-03-18T14:37:32.195Z,15.07
2023-03-18T14:51:35.435Z,16.12
2023-03-18T15:05:15.309Z,15.53
2023-03-18T15:18:56.578Z,14.25
2023-03-18T15:22:04.647Z,14.26
2023-03-18T15:25:05.521Z,14.17
2023-03-18T15:28:17.974Z,14.01
2023-03-18T15:31:08.426Z,13.77
2023-03-18T15:34:18.944Z,13.67
2023-03-18T15:37:41.961Z,13.46
2023-03-18T15:40:35.463Z,13.29
2023-03-18T15:43:31.499Z,13.22
2023-03-18T15:59:28.669Z,13.01
2023-03-18T16:02:47.567Z,12.88
2023-03-18T16:06:26.400Z,12.81
2023-03-18T16:10:05.342Z,12.68
2023-03-18T16:13:44.098Z,12.56
2023-03-18T16:16:55.305Z,12.52
2023-03-18T16:20:54.377Z,12.41
2023-03-18T16:24:50.739Z,12.28
2023-03-18T16:29:06.240Z,12.19
2023-03-18T16:32:40.757Z,12.13
2023-03-18T16:35:57.072Z,12.10
2023-03-18T16:39:34.317Z,12.03
2023-03-18T16:43:03.243Z,11.93
2023-03-18T16:47:01.598Z,11.87
2023-03-18T16:51:03.133Z,11.80
2023-03-18T16:54:41.917Z,11.73
2023-03-18T16:58:21.138Z,11.72
2023-03-18T17:01:07.888Z,11.67
2023-03-18T17:03:56.449Z,11.59
2023-03-18T17:06:43.869Z,11.53
2023-03-18T17:09:32.264Z,11.48
2023-03-18T17:12:21.694Z,11.45
2023-03-18T17:15:12.842Z,11.41
2023-03-18T17:18:00.037Z,11.40
2023-03-18T17:20:48.954Z,11.36
2023-03-18T17:25:27.013Z,11.32
2023-03-18T17:28:58.701Z,11.23
2023-03-18T17:32:26.184Z,11.19
2023-03-18T17:35:17.698Z,11.12
2023-03-18T17:38:17.573Z,11.05
2023-03-18T17:41:18.822Z,11.06
2023-03-18T17:45:04.250Z,11.12
2023-03-18T18:00:00.899Z,10.96
2023-03-18T18:13:31.096Z,10.74
2023-03-18T18:16:19.587Z,10.73
2023-03-18T18:19:07.707Z,10.65
2023-03-18T18:21:54.934Z,10.56
2023-03-18T18:24:44.146Z,10.52
2023-03-18T18:27:31.001Z,10.51
2023-03-18T18:30:22.586Z,10.39
2023-03-18T18:33:09.404Z,10.30
2023-03-18T18:36:01.653Z,10.37
2023-03-18T18:38:47.994Z,10.36
2023-03-18T18:41:34.447Z,10.25
2023-03-18T18:44:21.807Z,10.23
2023-03-18T18:49:31.350Z,10.27
2023-03-18T18:52:19.447Z,10.21
2023-03-18T18:55:11.651Z,10.14
2023-03-18T18:57:58.599Z,10.12
2023-03-18T19:00:49.917Z,10.09
2023-03-18T19:03:37.042Z,9.99
2023-03-18T19:06:27.382Z,9.99
2023-03-18T19:09:19.916Z,9.95
2023-03-18T19:12:15.710Z,9.96
2023-03-18T19:15:15.348Z,9.97
2023-03-18T19:18:07.480Z,9.92
2023-03-18T19:20:59.572Z,9.93
2023-03-18T19:23:46.836Z,9.96
2023-03-18T19:26:33.322Z,9.94
2023-03-18T19:29:20.534Z,9.90
2023-03-18T19:32:14.808Z,9.90
2023-03-18T19:35:03.464Z,9.86
2023-03-18T19:37:50.445Z,9.81
2023-03-18T19:40:37.271Z,9.81
2023-03-18T19:43:25.068Z,9.82
2023-03-18T19:46:28.338Z,9.80
2023-03-18T19:49:28.029Z,9.74
2023-03-18T19:52:28.178Z,9.70
2023-03-18T19:55:16.594Z,9.65
2023-03-18T19:58:05.939Z,9.59
2023-03-18T20:00:53.949Z,9.51
2023-03-18T20:03:40.744Z,9.48
2023-03-18T20:06:27.654Z,9.48
2023-03-18T20:09:15.069Z,9.47
2023-03-18T20:12:05.775Z,9.47
2023-03-18T20:14:52.878Z,9.46
2023-03-18T20:17:44.766Z,9.45
2023-03-18T20:20:32.792Z,9.43
2023-03-18T20:23:25.628Z,9.33
2023-03-18T20:26:12.500Z,9.38
2023-03-18T20:28:59.600Z,9.38
2023-03-18T20:32:04.875Z,9.36
2023-03-18T20:34:51.505Z,9.36
2023-03-18T20:37:38.823Z,9.34
2023-03-18T20:40:28.497Z,9.35
2023-03-18T20:43:20.048Z,9.32
2023-03-18T20:46:13.337Z,9.31
2023-03-18T20:49:06.029Z,9.30
2023-03-18T20:51:52.763Z,9.26
2023-03-18T20:54:39.643Z,9.20
2023-03-18T20:57:27.801Z,9.19
2023-03-18T21:00:23.141Z,9.16
2023-03-18T21:03:25.829Z,9.13
2023-03-18T21:06:16.835Z,9.06
2023-03-18T21:09:04.950Z,9.00
2023-03-18T21:11:51.422Z,8.93
2023-03-18T21:14:38.097Z,8.94
2023-03-18T21:17:28.467Z,8.90
2023-03-18T21:20:27.633Z,8.86
2023-03-18T21:23:36.924Z,8.84
2023-03-18T21:26:35.087Z,8.83
2023-03-18T21:29:22.048Z,8.74
2023-03-18T21:32:26.573Z,8.75
2023-03-18T21:35:25.781Z,8.77
2023-03-18T21:38:12.203Z,8.74
2023-03-18T21:41:00.807Z,8.73
2023-03-18T21:43:50.858Z,8.68
2023-03-18T21:46:37.445Z,8.61
2023-03-18T21:49:24.052Z,8.54
2023-03-18T21:52:18.661Z,8.55
2023-03-18T21:55:06.836Z,8.50
2023-03-18T21:57:53.299Z,8.50
2023-03-18T22:00:40.029Z,8.47
2023-03-18T22:03:29.436Z,8.44
2023-03-18T22:06:16.993Z,8.39
2023-03-18T22:09:03.882Z,8.39
2023-03-18T22:11:50.730Z,8.40
2023-03-18T22:14:37.490Z,8.36
2023-03-18T22:17:27.889Z,8.30
2023-03-18T22:20:15.035Z,8.27
2023-03-18T22:23:10.491Z,8.27
2023-03-18T22:25:58.170Z,8.22
2023-03-18T22:28:45.655Z,8.20
2023-03-18T22:31:32.412Z,8.15
2023-03-18T22:34:23.710Z,8.14
2023-03-18T22:37:19.825Z,8.14
2023-03-18T22:40:15.455Z,8.12
2023-03-18T22:43:01.956Z,8.09
2023-03-18T22:45:48.431Z,8.06
2023-03-18T22:48:35.652Z,8.08
2023-03-18T22:51:26.562Z,8.03
2023-03-18T22:54:19.089Z,7.99
2023-03-18T22:57:07.240Z,7.99
2023-03-18T22:59:56.185Z,7.95
2023-03-18T23:02:42.772Z,7.88
2023-03-18T23:05:29.639Z,7.88
2023-03-18T23:08:17.247Z,7.80
2023-03-18T23:11:04.305Z,7.78
2023-03-18T23:13:52.198Z,7.72
2023-03-18T23:16:38.970Z,7.66
2023-03-18T23:19:25.946Z,7.65
2023-03-18T23:22:16.016Z,7.60
2023-03-18T23:25:03.163Z,7.53
2023-03-18T23:27:49.842Z,7.53
2023-03-18T23:30:40.686Z,7.49
2023-03-18T23:33:27.318Z,7.50
2023-03-18T23:36:14.143Z,7.37
2023-03-18T23:39:01.324Z,7.37
2023-03-18T23:41:48.061Z,7.32
2023-03-18T23:44:34.598Z,7.31
2023-03-18T23:47:21.717Z,7.26
2023-03-18T23:50:10.794Z,7.22
2023-03-18T23:52:57.470Z,7.13
2023-03-18T23:55:44.434Z,7.08
2023-03-18T23:58:33.496Z,7.00
